Time;durP1;ratioP1;P1;durP2;ratioP2;P2;SDS_P1;SDS_P2;PMS_P1;PMS_P2;Temp;Humidity;BMP_temperature;BMP_pressure;BME280_temperature;BME280_humidity;BME280_pressure;Samples;Min_cycle;Max_cycle;Signal;HPM_P1;HPM_P2
2022/07/17 00:02:05;;;;;;;3.03;3.03;;;;;;;15.21;81.37;65790.59;5114737;28;20181;-70
2022/07/17 00:04:31;;;;;;;2.50;2.50;;;;;;;15.19;81.86;65783.69;5114258;28;20295;-70
2022/07/17 00:06:58;;;;;;;2.53;2.53;;;;;;;15.10;82.10;65774.25;5114698;28;20242;-70
2022/07/17 00:09:24;;;;;;;2.83;2.67;;;;;;;15.07;82.39;65763.06;5114336;28;20189;-70
2022/07/17 00:11:50;;;;;;;2.93;2.57;;;;;;;15.03;82.83;65765.91;5114381;28;20199;-70
2022/07/17 00:14:17;;;;;;;3.10;3.00;;;;;;;14.94;83.04;65755.88;5114188;28;20205;-70
2022/07/17 00:16:43;;;;;;;2.80;2.60;;;;;;;14.85;83.04;65741.72;5114237;28;20181;-70
2022/07/17 00:19:10;;;;;;;3.43;3.00;;;;;;;14.82;83.30;65740.47;5114213;28;20216;-70
2022/07/17 00:21:37;;;;;;;2.77;2.77;;;;;;;14.78;83.75;65733.94;5114399;28;20208;-70
2022/07/17 00:24:06;;;;;;;2.80;2.63;;;;;;;14.70;84.11;65727.66;5114068;28;20254;-70
2022/07/17 00:26:33;;;;;;;3.20;3.17;;;;;;;14.66;84.38;65723.22;5113964;28;20189;-70
2022/07/17 00:29:03;;;;;;;2.70;2.60;;;;;;;14.59;84.41;65713.38;5095595;28;20201;-70
2022/07/17 00:31:29;;;;;;;2.50;2.50;;;;;;;14.59;84.50;65718.59;5114022;28;20185;-70
2022/07/17 00:33:56;;;;;;;2.43;2.43;;;;;;;14.60;84.26;65719.16;5113904;28;20275;-69
2022/07/17 00:36:23;;;;;;;2.87;2.87;;;;;;;14.61;84.31;65714.50;5114237;28;20272;-69
2022/07/17 00:38:49;;;;;;;2.57;2.47;;;;;;;14.58;84.26;65717.50;5113917;28;20242;-69
2022/07/17 00:41:16;;;;;;;2.57;2.50;;;;;;;14.59;84.24;65729.06;5113833;28;20205;-69
2022/07/17 00:43:42;;;;;;;4.33;3.37;;;;;;;14.59;84.16;65726.44;5113825;28;20258;-70
2022/07/17 00:46:08;;;;;;;2.70;2.70;;;;;;;14.56;84.22;65715.25;5114132;28;20185;-70
2022/07/17 00:48:35;;;;;;;3.33;3.23;;;;;;;14.56;84.06;65715.25;5114044;28;20246;-70
2022/07/17 00:51:01;;;;;;;3.13;3.13;;;;;;;14.56;84.08;65712.09;5114034;28;20242;-70
2022/07/17 00:53:32;;;;;;;3.13;3.13;;;;;;;14.55;84.01;65714.16;5113942;28;20754;-70
2022/07/17 00:56:01;;;;;;;2.43;2.43;;;;;;;14.53;84.11;65706.16;5113710;28;20651;-70
2022/07/17 00:58:30;;;;;;;2.23;2.23;;;;;;;14.50;84.17;65713.81;5114018;28;20189;-70
2022/07/17 01:00:56;;;;;;;2.27;2.17;;;;;;;14.48;84.37;65714.19;5113845;28;20213;-70
2022/07/17 01:03:25;;;;;;;2.97;2.97;;;;;;;14.43;84.57;65706.00;5113861;28;20205;-70
2022/07/17 01:05:52;;;;;;;2.43;2.37;;;;;;;14.39;84.88;65691.09;5113907;28;20720;-70
2022/07/17 01:08:19;;;;;;;2.40;2.40;;;;;;;14.36;85.20;65695.63;5113624;28;20193;-70
2022/07/17 01:10:46;;;;;;;3.07;2.90;;;;;;;14.34;85.34;65682.94;5113852;28;20181;-70
2022/07/17 01:13:12;;;;;;;2.63;2.63;;;;;;;14.32;85.59;65683.31;5113488;28;20205;-70
2022/07/17 01:15:40;;;;;;;2.40;2.33;;;;;;;14.26;85.64;65679.81;5113826;28;20264;-69
2022/07/17 01:18:11;;;;;;;2.47;2.37;;;;;;;14.22;85.97;65672.22;5113515;28;20209;-69
2022/07/17 01:20:40;;;;;;;2.90;2.63;;;;;;;14.15;86.33;65667.59;5114048;28;20177;-69
2022/07/17 01:23:07;;;;;;;2.77;2.67;;;;;;;14.16;86.59;65681.75;5113319;28;20209;-70
2022/07/17 01:25:34;;;;;;;5.17;2.57;;;;;;;14.13;86.71;65660.13;5113475;28;20185;-70
2022/07/17 01:28:01;;;;;;;2.63;2.53;;;;;;;14.11;86.76;65659.97;5113496;28;20242;-70
2022/07/17 01:30:28;;;;;;;2.60;2.40;;;;;;;;;;5114017;28;20181;-69
2022/07/17 01:32:55;;;;;;;2.77;2.77;;;;;;;14.00;87.06;65648.28;5113597;28;20264;-69
2022/07/17 01:35:22;;;;;;;2.43;2.43;;;;;;;13.94;87.46;65646.84;5113907;28;20196;-69
2022/07/17 01:37:49;;;;;;;2.87;2.77;;;;;;;13.89;87.55;65652.28;5113378;28;20185;-69
2022/07/17 01:40:16;;;;;;;2.53;2.53;;;;;;;13.86;88.06;65637.94;5114153;28;20185;-69
2022/07/17 01:42:46;;;;;;;3.10;3.10;;;;;;;13.84;88.17;65640.94;5117176;28;20258;-69
2022/07/17 01:45:14;;;;;;;3.03;2.83;;;;;;;13.83;88.53;65640.38;5117105;28;20267;-69
2022/07/17 01:47:42;;;;;;;2.83;2.83;;;;;;;13.77;88.73;65631.09;5117181;28;20185;-69
2022/07/17 01:50:10;;;;;;;2.63;2.53;;;;;;;13.71;89.04;65621.81;5117367;28;20219;-69
2022/07/17 01:52:39;;;;;;;3.00;2.87;;;;;;;13.71;89.28;65614.00;5117075;28;20181;-69
2022/07/17 01:55:08;;;;;;;2.80;2.70;;;;;;;13.67;89.60;65614.78;5116913;28;20699;-69
2022/07/17 01:57:35;;;;;;;2.67;2.60;;;;;;;13.66;89.41;65621.50;5116975;28;20189;-69
2022/07/17 02:00:04;;;;;;;2.53;2.43;;;;;;;13.62;90.09;65612.38;5117535;28;20254;-69
2022/07/17 02:02:33;;;;;;;2.93;2.83;;;;;;;13.59;nan;65616.88;5116853;28;20193;-69
2022/07/17 02:05:00;;;;;;;3.13;2.80;;;;;;;13.57;90.55;65606.25;5116652;28;20221;-69
2022/07/17 02:07:27;;;;;;;2.27;2.27;;;;;;;13.58;90.38;65607.41;5117404;28;20244;-69
2022/07/17 02:09:53;;;;;;;3.23;3.13;;;;;;;13.53;90.64;65607.03;5116705;28;20237;-69
2022/07/17 02:12:20;;;;;;;3.10;3.10;;;;;;;13.53;90.60;65596.63;5116677;28;20189;-69
2022/07/17 02:14:46;;;;;;;2.93;2.93;;;;;;;13.47;90.68;65591.06;5116576;28;20261;-69
2022/07/17 02:17:12;;;;;;;2.73;2.73;;;;;;;13.48;90.76;65594.22;5116880;28;20231;-69
2022/07/17 02:19:40;;;;;;;3.00;2.80;;;;;;;13.46;90.81;65592.56;5117080;28;20650;-69
2022/07/17 02:22:06;;;;;;;3.00;2.90;;;;;;;13.40;90.93;65593.69;5116953;28;20252;-69
2022/07/17 02:24:33;;;;;;;2.90;2.90;;;;;;;13.39;90.92;65597.81;5116388;28;20205;-69
2022/07/17 02:26:59;;;;;;;4.10;2.60;;;;;;;13.30;91.30;65572.16;5116410;28;20720;-69
2022/07/17 02:29:25;;;;;;;3.40;3.10;;;;;;;13.31;91.38;65578.50;5116339;28;20230;-69
2022/07/17 02:31:52;;;;;;;2.80;2.80;;;;;;;13.27;91.51;65573.50;5116291;28;20189;-69
2022/07/17 02:34:18;;;;;;;3.40;2.93;;;;;;;13.27;91.57;65589.69;5116209;28;20205;-70
2022/07/17 02:36:45;;;;;;;2.70;2.60;;;;;;;13.28;91.62;65579.81;5116202;28;20660;-70
2022/07/17 02:39:11;;;;;;;2.77;2.77;;;;;;;13.27;91.64;65579.25;5116423;28;20589;-69
2022/07/17 02:41:38;;;;;;;3.37;3.27;;;;;;;13.26;91.70;65567.16;5116019;28;20261;-69
2022/07/17 02:44:04;;;;;;;4.77;2.50;;;;;;;13.23;91.68;65584.69;5116011;28;20207;-70
2022/07/17 02:46:31;;;;;;;2.70;2.60;;;;;;;13.24;91.93;65580.59;5116306;28;20185;-69
2022/07/17 02:48:57;;;;;;;2.60;2.60;;;;;;;13.18;91.82;65582.28;5115953;28;20179;-69
2022/07/17 02:51:24;;;;;;;2.93;2.93;;;;;;;13.18;92.04;65556.22;5115823;28;20190;-69
2022/07/17 02:53:51;;;;;;;3.53;3.43;;;;;;;13.10;92.38;65549.94;5115824;28;20212;-70
2022/07/17 02:56:17;;;;;;;2.77;2.60;;;;;;;13.02;92.69;65556.69;5116117;28;20673;-69
2022/07/17 02:58:44;;;;;;;2.77;2.57;;;;;;;13.02;92.68;65564.50;5115765;28;20192;-69
2022/07/17 03:01:10;;;;;;;2.67;2.67;;;;;;;13.01;92.78;65548.31;5116041;28;20204;-69
2022/07/17 03:03:37;;;;;;;2.80;2.80;;;;;;;13.01;92.96;65545.69;5115516;28;20212;-69
2022/07/17 03:06:04;;;;;;;2.77;2.77;;;;;;;12.97;92.94;65551.13;5115525;28;20225;-69
2022/07/17 03:08:30;;;;;;;3.60;3.40;;;;;;;12.96;93.00;65547.97;5115590;28;20234;-69
2022/07/17 03:10:57;;;;;;;3.70;3.50;;;;;;;12.91;93.27;65542.94;5116053;28;20191;-69
2022/07/17 03:13:23;;;;;;;2.70;2.70;;;;;;;12.85;93.59;65522.69;5115426;28;20201;-69
2022/07/17 03:15:50;;;;;;;2.57;2.57;;;;;;;12.82;93.83;65530.34;5115433;28;20188;-69
2022/07/17 03:18:16;;;;;;;2.73;2.73;;;;;;;12.81;93.74;65526.63;5115439;28;20188;-69
2022/07/17 03:20:42;;;;;;;3.33;3.13;;;;;;;12.83;93.96;65528.31;5115398;28;20187;-69
2022/07/17 03:23:09;;;;;;;2.77;2.67;;;;;;;12.84;94.01;65526.81;5115457;28;20261;-70
2022/07/17 03:25:36;;;;;;;2.80;2.70;;;;;;;12.88;93.90;65531.81;5115828;28;20238;-70
2022/07/17 03:28:02;;;;;;;2.90;2.90;;;;;;;12.85;93.76;65528.47;5115596;28;20185;-69
2022/07/17 03:30:29;;;;;;;8.03;3.10;;;;;;;12.84;93.80;65524.19;5115559;28;20188;-69
2022/07/17 03:32:55;;;;;;;2.60;2.60;;;;;;;12.83;94.00;65517.88;5115599;28;20240;-70
2022/07/17 03:35:22;;;;;;;6.13;2.77;;;;;;;12.74;94.13;65511.06;5115363;28;20570;-69
2022/07/17 03:37:48;;;;;;;2.23;2.23;;;;;;;12.75;94.32;65511.59;5115325;28;20188;-69
2022/07/17 03:40:15;;;;;;;4.73;2.47;;;;;;;12.74;94.45;65516.25;5114972;28;20738;-69
2022/07/17 03:42:41;;;;;;;2.40;2.40;;;;;;;12.77;94.41;65529.44;5114868;28;20204;-69
2022/07/17 03:45:08;;;;;;;2.50;2.50;;;;;;;12.78;94.26;65528.50;5114830;28;20254;-69
2022/07/17 03:47:35;;;;;;;2.90;2.73;;;;;;;12.78;94.07;65525.34;5115080;28;20189;-69
2022/07/17 03:50:02;;;;;;;4.13;2.60;;;;;;;12.75;94.24;65519.41;5115325;28;20189;-69
2022/07/17 03:52:29;;;;;;;2.60;2.60;;;;;;;12.74;94.39;65518.88;5114731;28;20228;-69
2022/07/17 03:54:56;;;;;;;2.90;2.70;;;;;;;12.71;94.53;65517.56;5114615;28;20224;-69
2022/07/17 03:57:22;;;;;;;2.60;2.60;;;;;;;12.72;94.34;65505.69;5114929;28;20195;-69
2022/07/17 03:59:49;;;;;;;3.20;2.67;;;;;;;12.70;94.60;65517.03;5114627;28;20667;-69
2022/07/17 04:02:15;;;;;;;5.43;3.17;;;;;;;12.74;94.78;65518.31;5114515;28;20261;-69
2022/07/17 04:04:42;;;;;;;3.40;3.20;;;;;;;12.71;94.86;65510.31;5114013;28;20390;-69
2022/07/17 04:07:26;;;;;;;2.73;2.73;;;;;;;12.70;94.98;65506.03;5114776;28;20176;-69
2022/07/17 04:09:57;;;;;;;2.70;2.70;;;;;;;12.64;95.45;65515.56;5114434;28;20574;-69
2022/07/17 04:12:25;;;;;;;3.33;3.23;;;;;;;12.58;95.66;65498.50;5114662;28;20226;-69
2022/07/17 04:14:52;;;;;;;2.93;2.93;;;;;;;12.59;95.70;65491.78;5114262;28;20211;-69
2022/07/17 04:17:19;;;;;;;3.10;3.10;;;;;;;12.57;95.75;65492.16;5114264;28;20704;-69
2022/07/17 04:19:45;;;;;;;4.83;2.67;;;;;;;12.59;95.79;65505.38;5114558;28;20574;-69
2022/07/17 04:22:12;;;;;;;3.27;3.13;;;;;;;12.55;95.86;65495.72;5114139;28;20202;-69
2022/07/17 04:24:38;;;;;;;2.93;2.90;;;;;;;12.59;95.98;65510.03;5114116;28;20627;-69
2022/07/17 04:27:05;;;;;;;2.70;2.67;;;;;;;12.60;96.14;65505.91;5114124;28;20733;-69
2022/07/17 04:29:32;;;;;;;3.43;3.23;;;;;;;12.61;96.11;65499.22;5114108;28;20586;-69
2022/07/17 04:31:58;;;;;;;6.93;3.23;;;;;;;12.62;96.29;65500.88;5114305;28;20233;-69
2022/07/17 04:34:25;;;;;;;3.20;3.03;;;;;;;12.65;96.41;65501.63;5114477;28;20752;-69
2022/07/17 04:36:51;;;;;;;3.03;2.93;;;;;;;12.68;96.32;65525.78;5113949;28;20185;-69
2022/07/17 04:39:18;;;;;;;3.50;3.40;;;;;;;12.71;96.39;65514.97;5113968;28;20239;-69
2022/07/17 04:41:44;;;;;;;3.37;3.17;;;;;;;12.74;96.27;65513.66;5114459;28;20514;-69
2022/07/17 04:44:11;;;;;;;3.47;3.27;;;;;;;12.71;96.31;65520.72;5114038;28;20549;-69
2022/07/17 04:46:37;;;;;;;4.23;3.40;;;;;;;12.71;96.40;65520.72;5114102;28;20185;-69
2022/07/17 04:49:05;;;;;;;3.10;3.10;;;;;;;12.77;96.36;65516.97;5114129;28;20347;-69
2022/07/17 04:51:31;;;;;;;3.60;3.50;;;;;;;12.81;96.39;65518.81;5114340;28;20215;-69
2022/07/17 04:53:58;;;;;;;3.47;3.27;;;;;;;12.83;96.54;65523.66;5113736;28;20261;-69
2022/07/17 04:56:24;;;;;;;4.50;3.83;;;;;;;12.88;96.20;65529.22;5114023;28;20184;-69
2022/07/17 04:58:51;;;;;;;3.10;3.10;;;;;;;12.97;96.00;65546.47;5113709;28;20234;-69
2022/07/17 05:01:17;;;;;;;3.00;2.80;;;;;;;12.99;95.83;65537.69;5113984;28;20185;-69
2022/07/17 05:03:44;;;;;;;2.83;2.67;;;;;;;13.05;95.74;65550.13;5113455;28;20213;-69
2022/07/17 05:06:10;;;;;;;8.13;3.60;;;;;;;13.10;95.48;65558.31;5113610;28;20196;-69
2022/07/17 05:08:37;;;;;;;4.43;3.63;;;;;;;13.14;95.45;65554.91;5113660;28;20185;-69
2022/07/17 05:11:03;;;;;;;3.67;3.67;;;;;;;13.21;95.06;65573.13;5114126;28;20247;-69
2022/07/17 05:13:30;;;;;;;4.03;3.83;;;;;;;13.27;94.66;65565.66;5113485;28;20755;-69
2022/07/17 05:15:57;;;;;;;2.90;2.80;;;;;;;13.31;94.75;65577.94;5116433;28;20195;-69
2022/07/17 05:18:23;;;;;;;3.03;2.93;;;;;;;;;;5118004;28;20192;-68
2022/07/17 05:20:50;;;;;;;3.60;3.40;;;;;;;13.41;94.77;65584.38;5117758;28;20177;-68
2022/07/17 05:23:16;;;;;;;3.43;3.03;;;;;;;13.54;94.32;65597.72;5118239;28;20219;-69
2022/07/17 05:25:43;;;;;;;3.53;3.23;;;;;;;13.65;94.18;65615.19;5118198;28;20200;-69
2022/07/17 05:28:10;;;;;;;3.73;3.63;;;;;;;13.61;94.35;65610.72;5117828;28;20234;-68
2022/07/17 05:30:36;;;;;;;3.97;3.83;;;;;;;13.71;93.62;65621.81;5117517;28;20588;-68
2022/07/17 05:33:03;;;;;;;3.20;3.20;;;;;;;13.75;93.14;65631.50;5117399;28;20759;-69
2022/07/17 05:35:30;;;;;;;4.10;3.90;;;;;;;13.78;93.03;65640.59;5117412;28;20711;-68
2022/07/17 05:37:56;;;;;;;3.77;3.57;;;;;;;13.89;92.46;65644.44;5117654;28;20233;-68
2022/07/17 05:40:25;;;;;;;3.60;3.60;;;;;;;13.99;91.74;65652.94;5117335;28;20201;-68
2022/07/17 05:42:52;;;;;;;3.40;3.27;;;;;;;14.01;92.29;65649.97;5117437;28;20661;-69
2022/07/17 05:45:19;;;;;;;4.60;3.67;;;;;;;14.07;91.80;65661.28;5117492;28;20241;-69
2022/07/17 05:47:45;;;;;;;3.37;3.17;;;;;;;14.17;92.26;65680.25;5117174;28;20242;-69
2022/07/17 05:50:12;;;;;;;3.40;3.10;;;;;;;14.26;92.00;65682.44;5117142;28;20184;-68
2022/07/17 05:52:38;;;;;;;3.90;3.63;;;;;;;14.39;90.82;65696.34;5117402;28;20173;-69
2022/07/17 05:55:05;;;;;;;3.37;3.17;;;;;;;14.49;90.40;65722.59;5116894;28;20209;-69
2022/07/17 05:57:33;;;;;;;3.13;3.13;;;;;;;14.50;89.58;65703.38;5117032;28;20230;-68
2022/07/17 05:59:59;;;;;;;3.70;3.60;;;;;;;14.57;89.54;65716.38;5116944;28;20181;-68
2022/07/17 06:02:25;;;;;;;4.27;3.90;;;;;;;14.65;89.34;65716.34;5117063;28;20651;-68
2022/07/17 06:04:52;;;;;;;4.73;3.40;;;;;;;14.76;89.33;65734.34;5116762;28;20258;-69
2022/07/17 06:07:18;;;;;;;3.33;3.23;;;;;;;14.93;88.42;65749.53;5116827;28;20173;-68
2022/07/17 06:09:45;;;;;;;3.60;3.60;;;;;;;15.00;88.28;65757.88;5117013;28;20194;-68
2022/07/17 06:12:11;;;;;;;2.60;2.60;;;;;;;15.09;87.65;65767.91;5116718;28;20230;-68
2022/07/17 06:14:37;;;;;;;2.37;2.27;;;;;;;15.22;86.97;65787.03;5116655;28;20760;-68
2022/07/17 06:17:04;;;;;;;4.00;3.80;;;;;;;15.35;86.47;65798.88;5116620;28;20192;-68
2022/07/17 06:19:30;;;;;;;2.63;2.53;;;;;;;15.49;85.89;65821.75;5116583;28;20177;-68
2022/07/17 06:21:57;;;;;;;3.77;3.13;;;;;;;15.60;82.79;65828.78;5117088;28;20250;-69
2022/07/17 06:24:23;;;;;;;3.77;3.47;;;;;;;15.63;82.76;65826.34;5116401;28;20217;-68
2022/07/17 06:26:50;;;;;;;5.20;2.83;;;;;;;15.76;82.99;65848.13;5115948;28;20259;-68
2022/07/17 06:29:17;;;;;;;4.60;2.57;;;;;;;15.77;81.87;65838.75;5116656;28;20214;-69
2022/07/17 06:31:43;;;;;;;3.63;3.50;;;;;;;;;;5116546;28;20212;-68
2022/07/17 06:34:09;;;;;;;3.70;3.53;;;;;;;15.82;81.53;65849.56;5116104;28;20201;-69
2022/07/17 06:36:36;;;;;;;4.43;3.40;;;;;;;16.01;81.02;65878.59;5116424;28;20185;-68
2022/07/17 06:39:02;;;;;;;5.60;3.30;;;;;;;16.07;80.20;65879.47;5116216;28;20242;-68
2022/07/17 06:41:29;;;;;;;3.43;3.03;;;;;;;16.18;79.72;65894.91;5116407;28;20186;-68
2022/07/17 06:43:56;;;;;;;2.23;2.13;;;;;;;16.23;79.23;65907.78;5116076;28;20240;-68
2022/07/17 06:46:22;;;;;;;8.43;2.20;;;;;;;;;;5116056;28;20181;-68
2022/07/17 06:48:51;;;;;;;3.40;3.10;;;;;;;16.43;78.29;65913.78;5116549;28;20209;-68
2022/07/17 06:51:18;;;;;;;2.93;2.67;;;;;;;16.50;78.58;65924.78;5116218;28;20181;-68
2022/07/17 06:53:45;;;;;;;3.30;2.87;;;;;;;16.64;78.80;65934.56;5115772;28;20205;-69
2022/07/17 06:56:11;;;;;;;2.90;2.80;;;;;;;16.77;76.47;65948.50;5116098;28;20201;-68
2022/07/17 06:58:38;;;;;;;3.10;2.90;;;;;;;16.88;76.96;65963.41;5115781;28;20181;-68
2022/07/17 07:01:04;;;;;;;3.33;2.73;;;;;;;17.01;77.40;65974.72;5116056;28;20189;-68
2022/07/17 07:03:31;;;;;;;2.80;2.70;;;;;;;17.20;77.97;66000.56;5116038;28;20209;-69
2022/07/17 07:05:58;;;;;;;2.60;2.43;;;;;;;17.37;77.53;66013.75;5115688;28;20663;-69
2022/07/17 07:08:25;;;;;;;3.63;2.97;;;;;;;;;;5115833;28;20700;-68
2022/07/17 07:10:52;;;;;;;6.70;2.37;;;;;;;17.56;74.95;66035.47;5115873;28;20188;-69
2022/07/17 07:13:18;;;;;;;2.40;2.27;;;;;;;17.69;74.89;66051.47;5115450;28;20613;-69
2022/07/17 07:15:44;;;;;;;7.50;2.03;;;;;;;17.75;75.64;66063.44;5115996;28;20178;-68
2022/07/17 07:18:11;;;;;;;2.67;2.47;;;;;;;17.85;74.63;66069.91;5115439;28;20205;-68
2022/07/17 07:20:38;;;;;;;2.63;2.43;;;;;;;17.97;73.58;66082.75;5115349;28;20189;-69
2022/07/17 07:23:04;;;;;;;2.57;2.40;;;;;;;18.02;74.00;66087.78;5115453;28;20614;-69
2022/07/17 07:25:33;;;;;;;2.27;2.27;;;;;;;;;;5115912;28;20169;-69
2022/07/17 07:28:01;;;;;;;2.60;2.60;;;;;;;18.20;74.74;66107.28;5115510;28;20184;-69
2022/07/17 07:30:27;;;;;;;2.63;2.63;;;;;;;18.36;71.25;66123.09;5115157;28;20226;-69
2022/07/17 07:32:54;;;;;;;3.20;3.10;;;;;;;18.33;70.93;66122.34;5114992;28;20181;-70
2022/07/17 07:35:20;;;;;;;4.93;2.80;;;;;;;18.34;71.15;66126.09;5115280;28;20169;-69
2022/07/17 07:37:47;;;;;;;5.57;2.70;;;;;;;18.39;72.97;66129.06;5114194;28;20185;-68
2022/07/17 07:40:13;;;;;;;2.47;2.47;;;;;;;18.53;72.24;66141.50;5115005;28;20230;-68
2022/07/17 07:42:40;;;;;;;2.80;2.70;;;;;;;18.64;70.66;66155.84;5115107;28;20193;-69
2022/07/17 07:45:08;;;;;;;2.77;2.67;;;;;;;18.60;69.22;66154.56;5114884;28;20618;-70
2022/07/17 07:47:46;;;;;;;1.97;1.87;;;;;;;18.63;69.18;66154.72;5114809;28;20655;-70
2022/07/17 07:50:14;;;;;;;2.77;2.57;;;;;;;18.64;69.87;66153.22;5115156;28;20183;-69
2022/07/17 07:52:41;;;;;;;2.27;2.27;;;;;;;18.65;69.18;66154.34;5115073;28;20203;-69
2022/07/17 07:55:08;;;;;;;2.60;2.60;;;;;;;18.75;69.62;66164.97;5114633;28;20254;-69
2022/07/17 07:57:35;;;;;;;2.67;2.67;;;;;;;18.78;69.16;66170.94;5114904;28;20181;-69
2022/07/17 08:00:04;;;;;;;2.47;2.47;;;;;;;18.80;69.54;66179.00;5114870;28;20197;-69
2022/07/17 08:02:38;;;;;;;2.67;1.83;;;;;;;18.79;69.55;66172.03;5114583;28;20177;-69
2022/07/17 08:05:05;;;;;;;3.67;3.00;;;;;;;18.79;70.31;66172.63;5114232;28;20209;-69
2022/07/17 08:07:35;;;;;;;2.87;2.77;;;;;;;18.77;69.71;66170.38;5114778;28;20640;-70
2022/07/17 08:10:01;;;;;;;3.70;2.40;;;;;;;18.66;69.78;66158.09;5114978;28;20189;-70
2022/07/17 08:12:28;;;;;;;8.20;2.30;;;;;;;18.63;69.68;66154.72;5114606;28;20181;-70
2022/07/17 08:15:11;;;;;;;6.90;2.17;;;;;;;18.59;69.67;66150.28;5114825;28;20296;-70
2022/07/17 08:17:38;;;;;;;2.37;1.90;;;;;;;18.58;68.38;66149.72;5114587;28;20230;-70
2022/07/17 08:20:05;;;;;;;2.10;1.97;;;;;;;;;;5114189;28;20246;-70
2022/07/17 08:22:38;;;;;;;2.43;2.23;;;;;;;;;;5114782;28;20212;-70
2022/07/17 08:25:25;;;;;;;2.83;1.97;;;;;;;;;;5114746;28;20196;-70
2022/07/17 08:27:51;;;;;;;1.97;1.87;;;;;;;18.74;69.03;66167.03;5114092;28;20246;-69
2022/07/17 08:30:18;;;;;;;2.43;2.43;;;;;;;;;;5114660;28;20185;-70
2022/07/17 08:32:44;;;;;;;1.73;1.73;;;;;;;18.85;67.64;66178.75;5114024;28;20188;-70
2022/07/17 08:35:11;;;;;;;2.17;2.17;;;;;;;18.91;68.04;66188.63;5113948;28;20201;-70
2022/07/17 08:37:48;;;;;;;4.83;2.20;;;;;;;;;;5113955;28;20178;-70
2022/07/17 08:40:29;;;;;;;2.30;1.90;;;;;;;19.09;65.90;66210.25;5114239;28;20584;-69
2022/07/17 08:42:56;;;;;;;1.83;1.83;;;;;;;;;;5114261;28;20169;-70
2022/07/17 08:45:23;;;;;;;3.70;2.60;;;;;;;19.09;65.99;66202.91;5114287;28;20536;-70
2022/07/17 08:47:51;;;;;;;2.70;2.00;;;;;;;19.09;66.35;66205.56;5114136;28;20217;-70
2022/07/17 08:50:24;;;;;;;2.30;2.10;;;;;;;19.15;66.42;66209.06;5113620;28;20182;-70
2022/07/17 08:52:50;;;;;;;5.80;2.37;;;;;;;;;;5114020;28;20173;-70
2022/07/17 08:55:17;;;;;;;2.03;1.93;;;;;;;19.30;63.89;66230.53;5114086;28;20226;-69
2022/07/17 08:57:44;;;;;;;2.40;2.40;;;;;;;19.29;64.98;66224.13;5113780;28;20231;-70
2022/07/17 09:00:15;;;;;;;2.13;2.03;;;;;;;19.28;64.40;66226.19;5113681;28;20189;-70
2022/07/17 09:03:02;;;;;;;3.37;1.87;;;;;;;19.27;63.77;66221.91;5113679;28;20642;-70
2022/07/17 09:05:32;;;;;;;1.90;1.80;;;;;;;19.40;64.55;66244.31;5113735;28;20618;-69
2022/07/17 09:08:00;;;;;;;2.40;2.00;;;;;;;19.51;64.27;66251.34;5114185;28;20601;-69
2022/07/17 09:10:41;;;;;;;5.83;2.50;;;;;;;19.59;62.60;66257.69;5113867;28;20189;-69
2022/07/17 09:13:24;;;;;;;2.30;2.30;;;;;;;19.69;63.01;66270.91;5113683;28;20576;-70
2022/07/17 09:15:53;;;;;;;5.43;2.23;;;;;;;19.69;60.29;66270.91;5114168;28;20516;-70
2022/07/17 09:18:20;;;;;;;2.00;1.90;;;;;;;19.69;61.41;66268.28;5114082;28;20647;-70
2022/07/17 09:20:47;;;;;;;6.30;2.70;;;;;;;;;;5113431;28;20258;-70
2022/07/17 09:23:13;;;;;;;2.60;2.50;;;;;;;19.64;60.67;66265.88;5113205;28;20254;-70
2022/07/17 09:25:44;;;;;;;3.27;2.57;;;;;;;19.88;61.10;66294.22;5113461;28;20185;-70
2022/07/17 09:28:13;;;;;;;2.97;2.00;;;;;;;19.95;59.91;66297.34;5113416;28;20545;-70
2022/07/17 09:30:43;;;;;;;1.33;1.33;;;;;;;19.99;59.88;66303.88;5113310;28;20188;-70
2022/07/17 09:33:12;;;;;;;1.97;1.87;;;;;;;;;;5113343;28;20189;-70
2022/07/17 09:35:53;;;;;;;2.07;2.07;;;;;;;19.94;57.80;66296.22;5113931;28;20190;-70
2022/07/17 09:38:27;;;;;;;1.57;1.57;;;;;;;;;;5113632;28;20193;-70
2022/07/17 09:41:15;;;;;;;2.40;2.27;;;;;;;20.06;60.49;66311.69;5113645;28;20615;-70
2022/07/17 09:43:46;;;;;;;2.00;2.00;;;;;;;20.11;61.65;66316.75;5113172;28;20209;-70
2022/07/17 09:46:16;;;;;;;2.43;2.43;;;;;;;20.22;62.41;66326.41;5113643;28;20170;-69
2022/07/17 09:48:47;;;;;;;2.17;1.97;;;;;;;20.42;61.60;66350.81;5113234;28;20196;-69
2022/07/17 09:51:18;;;;;;;2.10;2.10;;;;;;;;;;5113269;28;20182;-69
2022/07/17 09:53:47;;;;;;;2.10;2.00;;;;;;;;;;5113336;28;20217;-70
2022/07/17 09:56:15;;;;;;;2.47;2.47;;;;;;;;;;5113150;28;20213;-70
2022/07/17 09:58:43;;;;;;;2.60;2.40;;;;;;;;;;5113127;28;20186;-69
2022/07/17 10:01:10;;;;;;;2.70;2.27;;;;;;;20.96;60.38;66410.69;5113784;28;20218;-69
2022/07/17 10:03:36;;;;;;;2.50;2.40;;;;;;;;;;5099271;28;20208;-69
2022/07/17 10:06:03;;;;;;;2.90;2.80;;;;;;;;;;5117073;28;20208;-70
2022/07/17 10:08:30;;;;;;;2.30;2.10;;;;;;;;;;5116843;28;20182;-70
2022/07/17 10:10:58;;;;;;;2.30;2.10;;;;;;;21.02;60.08;66422.69;5117003;28;20174;-69
2022/07/17 10:13:24;;;;;;;2.50;2.40;;;;;;;21.06;59.33;66419.22;5116849;28;20213;-69
2022/07/17 10:15:51;;;;;;;2.20;2.20;;;;;;;21.15;60.56;66429.31;5116943;28;20665;-69
2022/07/17 10:18:20;;;;;;;1.90;1.80;;;;;;;;;;5116552;28;20197;-70
2022/07/17 10:20:46;;;;;;;2.70;2.70;;;;;;;;;;5116543;28;20189;-70
2022/07/17 10:23:13;;;;;;;4.00;2.90;;;;;;;;;;5116472;28;20695;-70
2022/07/17 10:25:41;;;;;;;2.30;2.30;;;;;;;21.16;60.60;66430.41;5116701;28;20592;-70
2022/07/17 10:28:07;;;;;;;2.30;2.10;;;;;;;21.21;59.15;66434.88;5116520;28;20219;-69
2022/07/17 10:30:34;;;;;;;2.03;1.97;;;;;;;21.28;58.61;66445.38;5116550;28;20192;-69
2022/07/17 10:33:06;;;;;;;2.63;2.13;;;;;;;21.46;58.91;66465.53;5116221;28;20185;-69
2022/07/17 10:35:45;;;;;;;2.00;1.90;;;;;;;21.53;58.13;66476.00;5116718;28;20170;-70
2022/07/17 10:38:13;;;;;;;1.80;1.70;;;;;;;21.61;59.04;66482.31;5116204;28;20222;-70
2022/07/17 10:40:41;;;;;;;1.27;1.27;;;;;;;21.65;58.08;66484.16;5116406;28;20181;-69
2022/07/17 10:43:08;;;;;;;3.07;2.13;;;;;;;;;;5116307;28;20185;-69
2022/07/17 10:45:42;;;;;;;1.77;1.67;;;;;;;21.68;57.32;66489.59;5116097;28;20278;-69
2022/07/17 10:48:18;;;;;;;2.80;1.90;;;;;;;21.68;54.28;66487.50;5116447;28;20177;-69
2022/07/17 10:50:48;;;;;;;2.40;2.40;;;;;;;;;;5116323;28;20238;-69
2022/07/17 10:53:18;;;;;;;1.63;1.53;;;;;;;21.73;54.20;66494.63;5116202;28;20636;-70
2022/07/17 10:56:04;;;;;;;2.10;2.03;;;;;;;21.73;54.31;66494.63;5115915;28;20183;-70
2022/07/17 10:58:32;;;;;;;2.17;2.07;;;;;;;;;;5116688;28;20530;-70
2022/07/17 11:01:15;;;;;;;1.53;1.53;;;;;;;21.82;53.74;66502.06;5116362;28;20240;-70
2022/07/17 11:03:43;;;;;;;3.70;2.03;;;;;;;22.01;52.04;66515.41;5115581;28;20213;-70
2022/07/17 11:06:22;;;;;;;1.47;1.37;;;;;;;21.97;54.43;66522.03;5115552;28;20238;-70
2022/07/17 11:09:00;;;;;;;2.60;1.90;;;;;;;22.06;54.37;66531.56;5115972;28;20665;-70
2022/07/17 11:11:48;;;;;;;2.03;2.03;;;;;;;22.03;53.55;66525.56;5115915;28;20181;-70
2022/07/17 11:14:16;;;;;;;3.00;1.93;;;;;;;;;;5114603;28;20679;-70
2022/07/17 11:16:57;;;;;;;2.00;1.90;;;;;;;22.07;54.99;66529.47;5115482;28;20720;-70
2022/07/17 11:19:35;;;;;;;2.27;1.63;;;;;;;22.09;54.49;66534.94;5115751;28;20170;-69
2022/07/17 11:22:02;;;;;;;1.77;1.67;;;;;;;;;;5115642;28;20177;-69
2022/07/17 11:24:55;;;;;;;2.20;2.00;;;;;;;22.19;54.62;66546.13;5115146;28;20212;-70
2022/07/17 11:27:24;;;;;;;1.93;1.77;;;;;;;22.30;53.68;66557.34;5111386;28;20193;-69
2022/07/17 11:29:53;;;;;;;2.23;2.13;;;;;;;22.39;52.62;66559.47;5115219;28;20238;-69
2022/07/17 11:32:20;;;;;;;2.23;2.13;;;;;;;22.41;51.51;66572.28;5115645;28;20185;-69
2022/07/17 11:34:47;;;;;;;2.50;2.33;;;;;;;22.35;51.87;66562.91;5115051;28;20262;-69
2022/07/17 11:37:13;;;;;;;2.10;1.97;;;;;;;22.27;51.05;66551.31;5115646;28;20518;-69
2022/07/17 11:39:46;;;;;;;2.20;2.10;;;;;;;22.26;52.34;66550.75;5115283;28;20189;-69
2022/07/17 11:42:15;;;;;;;2.60;2.50;;;;;;;22.35;52.55;66566.13;5115295;28;20198;-70
2022/07/17 11:44:43;;;;;;;2.70;2.50;;;;;;;22.39;52.56;66564.75;5114774;28;20219;-69
2022/07/17 11:47:11;;;;;;;3.60;2.80;;;;;;;22.40;51.66;66569.09;5114895;28;20230;-69
2022/07/17 11:49:42;;;;;;;4.83;4.27;;;;;;;22.40;50.83;66560.59;5114792;28;20188;-69
2022/07/17 11:52:11;;;;;;;4.07;3.97;;;;;;;22.40;50.70;66569.09;5114819;28;20223;-69
2022/07/17 11:54:43;;;;;;;4.00;3.90;;;;;;;;;;5114665;28;20320;-69
2022/07/17 11:57:10;;;;;;;8.00;4.40;;;;;;;;;;5114749;28;20178;-70